sensor_id;sensor_type;location;lat;lon;timestamp;P1;durP1;ratioP1;P2;durP2;ratioP2
47523;SDS011;33253;42.144;25.884;2023-12-14T00:00:48;102.57;;;27.98;;
47523;SDS011;33253;42.144;25.884;2023-12-14T00:03:14;86.97;;;26.85;;
47523;SDS011;33253;42.144;25.884;2023-12-14T00:05:39;66.70;;;26.85;;
47523;SDS011;33253;42.144;25.884;2023-12-14T00:08:05;84.32;;;28.52;;
47523;SDS011;33253;42.144;25.884;2023-12-14T00:10:30;125.05;;;27.20;;
47523;SDS011;33253;42.144;25.884;2023-12-14T00:12:56;114.90;;;27.30;;
47523;SDS011;33253;42.144;25.884;2023-12-14T00:15:21;162.15;;;34.85;;
47523;SDS011;33253;42.144;25.884;2023-12-14T00:17:47;144.13;;;42.55;;
47523;SDS011;33253;42.144;25.884;2023-12-14T00:20:12;145.43;;;44.88;;
47523;SDS011;33253;42.144;25.884;2023-12-14T00:22:39;130.98;;;34.03;;
47523;SDS011;33253;42.144;25.884;2023-12-14T00:25:05;181.50;;;45.55;;
47523;SDS011;33253;42.144;25.884;2023-12-14T00:27:30;173.15;;;40.20;;
47523;SDS011;33253;42.144;25.884;2023-12-14T00:29:56;130.13;;;32.40;;
47523;SDS011;33253;42.144;25.884;2023-12-14T00:32:21;98.68;;;27.25;;
47523;SDS011;33253;42.144;25.884;2023-12-14T00:34:47;101.95;;;32.67;;
47523;SDS011;33253;42.144;25.884;2023-12-14T00:37:13;76.95;;;30.55;;
47523;SDS011;33253;42.144;25.884;2023-12-14T00:39:38;89.30;;;27.60;;
47523;SDS011;33253;42.144;25.884;2023-12-14T00:42:04;62.05;;;27.40;;
47523;SDS011;33253;42.144;25.884;2023-12-14T00:44:29;95.05;;;29.48;;
47523;SDS011;33253;42.144;25.884;2023-12-14T00:46:55;87.85;;;27.48;;
47523;SDS011;33253;42.144;25.884;2023-12-14T00:49:20;86.00;;;28.15;;
47523;SDS011;33253;42.144;25.884;2023-12-14T00:51:46;67.10;;;27.30;;
47523;SDS011;33253;42.144;25.884;2023-12-14T00:54:11;74.65;;;26.23;;
47523;SDS011;33253;42.144;25.884;2023-12-14T00:56:37;68.35;;;27.77;;
47523;SDS011;33253;42.144;25.884;2023-12-14T00:59:02;98.80;;;26.25;;
47523;SDS011;33253;42.144;25.884;2023-12-14T01:01:28;63.67;;;26.58;;
47523;SDS011;33253;42.144;25.884;2023-12-14T01:03:53;70.20;;;26.83;;
47523;SDS011;33253;42.144;25.884;2023-12-14T01:06:19;81.15;;;26.35;;
47523;SDS011;33253;42.144;25.884;2023-12-14T01:08:44;83.72;;;26.55;;
47523;SDS011;33253;42.144;25.884;2023-12-14T01:11:10;58.80;;;25.38;;
47523;SDS011;33253;42.144;25.884;2023-12-14T01:13:35;73.95;;;27.75;;
47523;SDS011;33253;42.144;25.884;2023-12-14T01:16:01;91.18;;;28.05;;
47523;SDS011;33253;42.144;25.884;2023-12-14T01:18:27;90.00;;;25.45;;
47523;SDS011;33253;42.144;25.884;2023-12-14T01:20:52;65.05;;;26.38;;
47523;SDS011;33253;42.144;25.884;2023-12-14T01:23:18;84.35;;;24.75;;
47523;SDS011;33253;42.144;25.884;2023-12-14T01:25:43;64.78;;;24.35;;
47523;SDS011;33253;42.144;25.884;2023-12-14T01:28:09;83.88;;;25.70;;
47523;SDS011;33253;42.144;25.884;2023-12-14T01:30:34;132.77;;;27.33;;
47523;SDS011;33253;42.144;25.884;2023-12-14T01:33:00;117.53;;;27.33;;
47523;SDS011;33253;42.144;25.884;2023-12-14T01:35:25;62.85;;;27.88;;
47523;SDS011;33253;42.144;25.884;2023-12-14T01:37:51;63.30;;;29.35;;
47523;SDS011;33253;42.144;25.884;2023-12-14T01:40:18;57.75;;;29.60;;
47523;SDS011;33253;42.144;25.884;2023-12-14T01:42:45;56.40;;;29.35;;
47523;SDS011;33253;42.144;25.884;2023-12-14T01:45:10;78.75;;;33.90;;
47523;SDS011;33253;42.144;25.884;2023-12-14T01:47:36;79.78;;;28.35;;
47523;SDS011;33253;42.144;25.884;2023-12-14T01:50:01;69.97;;;28.30;;
47523;SDS011;33253;42.144;25.884;2023-12-14T01:52:27;66.60;;;27.48;;
47523;SDS011;33253;42.144;25.884;2023-12-14T01:54:52;59.92;;;28.90;;
47523;SDS011;33253;42.144;25.884;2023-12-14T01:57:20;61.35;;;26.98;;
47523;SDS011;33253;42.144;25.884;2023-12-14T01:59:45;55.45;;;26.40;;
47523;SDS011;33253;42.144;25.884;2023-12-14T02:02:11;53.47;;;28.52;;
47523;SDS011;33253;42.144;25.884;2023-12-14T02:04:36;48.72;;;27.23;;
47523;SDS011;33253;42.144;25.884;2023-12-14T02:07:02;54.65;;;28.75;;
47523;SDS011;33253;42.144;25.884;2023-12-14T02:09:28;53.67;;;28.77;;
47523;SDS011;33253;42.144;25.884;2023-12-14T02:11:54;55.55;;;29.35;;
47523;SDS011;33253;42.144;25.884;2023-12-14T02:14:21;55.20;;;28.48;;
47523;SDS011;33253;42.144;25.884;2023-12-14T02:16:47;54.33;;;29.13;;
47523;SDS011;33253;42.144;25.884;2023-12-14T02:19:13;55.30;;;29.23;;
47523;SDS011;33253;42.144;25.884;2023-12-14T02:21:38;52.58;;;29.40;;
47523;SDS011;33253;42.144;25.884;2023-12-14T02:24:04;50.78;;;27.10;;
47523;SDS011;33253;42.144;25.884;2023-12-14T02:26:29;54.40;;;27.15;;
47523;SDS011;33253;42.144;25.884;2023-12-14T02:28:55;51.28;;;29.08;;
47523;SDS011;33253;42.144;25.884;2023-12-14T02:31:20;53.30;;;25.67;;
47523;SDS011;33253;42.144;25.884;2023-12-14T02:33:47;52.22;;;28.35;;
47523;SDS011;33253;42.144;25.884;2023-12-14T02:36:13;46.47;;;25.58;;
47523;SDS011;33253;42.144;25.884;2023-12-14T02:38:38;52.22;;;28.35;;
47523;SDS011;33253;42.144;25.884;2023-12-14T02:41:04;46.95;;;27.52;;
47523;SDS011;33253;42.144;25.884;2023-12-14T02:43:29;55.03;;;27.77;;
47523;SDS011;33253;42.144;25.884;2023-12-14T02:45:55;53.58;;;27.08;;
47523;SDS011;33253;42.144;25.884;2023-12-14T02:48:26;56.85;;;27.45;;
47523;SDS011;33253;42.144;25.884;2023-12-14T02:50:52;58.58;;;30.02;;
47523;SDS011;33253;42.144;25.884;2023-12-14T02:53:17;63.22;;;31.65;;
47523;SDS011;33253;42.144;25.884;2023-12-14T02:55:43;57.25;;;28.38;;
47523;SDS011;33253;42.144;25.884;2023-12-14T02:58:08;61.63;;;30.90;;
47523;SDS011;33253;42.144;25.884;2023-12-14T03:00:34;62.03;;;31.90;;
47523;SDS011;33253;42.144;25.884;2023-12-14T03:02:59;61.92;;;32.60;;
47523;SDS011;33253;42.144;25.884;2023-12-14T03:05:25;64.20;;;31.50;;
47523;SDS011;33253;42.144;25.884;2023-12-14T03:07:50;67.03;;;31.40;;
47523;SDS011;33253;42.144;25.884;2023-12-14T03:10:16;66.68;;;30.38;;
47523;SDS011;33253;42.144;25.884;2023-12-14T03:12:41;62.38;;;30.48;;
47523;SDS011;33253;42.144;25.884;2023-12-14T03:15:07;65.55;;;31.65;;
47523;SDS011;33253;42.144;25.884;2023-12-14T03:17:32;67.10;;;31.67;;
47523;SDS011;33253;42.144;25.884;2023-12-14T03:19:58;61.55;;;30.25;;
47523;SDS011;33253;42.144;25.884;2023-12-14T03:22:23;65.30;;;31.40;;
47523;SDS011;33253;42.144;25.884;2023-12-14T03:24:49;60.95;;;31.13;;
47523;SDS011;33253;42.144;25.884;2023-12-14T03:27:14;56.47;;;28.30;;
47523;SDS011;33253;42.144;25.884;2023-12-14T03:29:40;66.88;;;32.20;;
47523;SDS011;33253;42.144;25.884;2023-12-14T03:32:05;65.28;;;30.20;;
47523;SDS011;33253;42.144;25.884;2023-12-14T03:34:31;67.45;;;30.73;;
47523;SDS011;33253;42.144;25.884;2023-12-14T03:36:56;66.82;;;32.20;;
47523;SDS011;33253;42.144;25.884;2023-12-14T03:39:22;66.32;;;31.38;;
47523;SDS011;33253;42.144;25.884;2023-12-14T03:41:47;69.53;;;30.98;;
47523;SDS011;33253;42.144;25.884;2023-12-14T03:44:13;67.90;;;30.75;;
47523;SDS011;33253;42.144;25.884;2023-12-14T03:46:38;65.60;;;30.88;;
47523;SDS011;33253;42.144;25.884;2023-12-14T03:49:04;70.00;;;32.22;;
47523;SDS011;33253;42.144;25.884;2023-12-14T03:51:29;64.72;;;32.40;;
47523;SDS011;33253;42.144;25.884;2023-12-14T03:53:55;62.63;;;30.83;;
47523;SDS011;33253;42.144;25.884;2023-12-14T03:56:21;60.47;;;32.05;;
47523;SDS011;33253;42.144;25.884;2023-12-14T03:58:46;58.92;;;29.98;;
47523;SDS011;33253;42.144;25.884;2023-12-14T04:01:18;60.40;;;28.90;;
47523;SDS011;33253;42.144;25.884;2023-12-14T04:03:45;64.47;;;31.00;;
47523;SDS011;33253;42.144;25.884;2023-12-14T04:06:14;61.63;;;31.27;;
47523;SDS011;33253;42.144;25.884;2023-12-14T04:08:40;62.33;;;29.73;;
47523;SDS011;33253;42.144;25.884;2023-12-14T04:11:06;58.88;;;29.02;;
47523;SDS011;33253;42.144;25.884;2023-12-14T04:13:33;57.00;;;29.40;;
47523;SDS011;33253;42.144;25.884;2023-12-14T04:15:59;57.80;;;28.42;;
47523;SDS011;33253;42.144;25.884;2023-12-14T04:18:25;55.00;;;28.80;;
47523;SDS011;33253;42.144;25.884;2023-12-14T04:20:51;59.60;;;30.77;;
47523;SDS011;33253;42.144;25.884;2023-12-14T04:23:17;53.80;;;29.50;;
47523;SDS011;33253;42.144;25.884;2023-12-14T04:25:43;59.90;;;30.05;;
47523;SDS011;33253;42.144;25.884;2023-12-14T04:28:08;54.83;;;28.35;;
47523;SDS011;33253;42.144;25.884;2023-12-14T04:30:34;50.88;;;28.55;;
47523;SDS011;33253;42.144;25.884;2023-12-14T04:33:00;52.83;;;29.20;;
47523;SDS011;33253;42.144;25.884;2023-12-14T04:35:26;53.30;;;27.17;;
47523;SDS011;33253;42.144;25.884;2023-12-14T04:37:51;55.55;;;30.30;;
47523;SDS011;33253;42.144;25.884;2023-12-14T04:40:17;50.88;;;28.80;;
47523;SDS011;33253;42.144;25.884;2023-12-14T04:42:42;54.53;;;29.02;;
47523;SDS011;33253;42.144;25.884;2023-12-14T04:45:08;54.83;;;28.58;;
47523;SDS011;33253;42.144;25.884;2023-12-14T04:47:38;51.53;;;29.27;;
47523;SDS011;33253;42.144;25.884;2023-12-14T04:50:03;52.20;;;28.25;;
47523;SDS011;33253;42.144;25.884;2023-12-14T04:52:29;50.17;;;29.17;;
47523;SDS011;33253;42.144;25.884;2023-12-14T04:54:55;55.08;;;28.17;;
47523;SDS011;33253;42.144;25.884;2023-12-14T04:57:20;56.72;;;28.80;;
47523;SDS011;33253;42.144;25.884;2023-12-14T04:59:46;53.38;;;30.05;;
47523;SDS011;33253;42.144;25.884;2023-12-14T05:02:11;52.90;;;30.60;;
47523;SDS011;33253;42.144;25.884;2023-12-14T05:04:37;57.90;;;32.70;;
47523;SDS011;33253;42.144;25.884;2023-12-14T05:07:02;64.68;;;38.88;;
47523;SDS011;33253;42.144;25.884;2023-12-14T05:09:28;65.03;;;36.53;;
47523;SDS011;33253;42.144;25.884;2023-12-14T05:11:53;57.75;;;32.92;;
47523;SDS011;33253;42.144;25.884;2023-12-14T05:14:19;53.38;;;30.25;;
47523;SDS011;33253;42.144;25.884;2023-12-14T05:16:45;51.72;;;29.45;;
47523;SDS011;33253;42.144;25.884;2023-12-14T05:19:10;55.13;;;30.63;;
47523;SDS011;33253;42.144;25.884;2023-12-14T05:21:37;50.92;;;29.65;;
47523;SDS011;33253;42.144;25.884;2023-12-14T05:24:03;52.92;;;29.20;;
47523;SDS011;33253;42.144;25.884;2023-12-14T05:26:28;54.75;;;29.40;;
47523;SDS011;33253;42.144;25.884;2023-12-14T05:28:54;52.35;;;29.65;;
47523;SDS011;33253;42.144;25.884;2023-12-14T05:31:21;50.78;;;29.58;;
47523;SDS011;33253;42.144;25.884;2023-12-14T05:33:47;52.08;;;28.83;;
47523;SDS011;33253;42.144;25.884;2023-12-14T05:36:13;53.50;;;28.98;;
47523;SDS011;33253;42.144;25.884;2023-12-14T05:38:38;48.42;;;28.52;;
47523;SDS011;33253;42.144;25.884;2023-12-14T05:41:05;54.15;;;29.88;;
47523;SDS011;33253;42.144;25.884;2023-12-14T05:43:31;51.88;;;28.65;;
47523;SDS011;33253;42.144;25.884;2023-12-14T05:45:56;46.30;;;26.05;;
47523;SDS011;33253;42.144;25.884;2023-12-14T05:48:22;50.28;;;27.77;;
47523;SDS011;33253;42.144;25.884;2023-12-14T05:50:47;53.75;;;27.73;;
47523;SDS011;33253;42.144;25.884;2023-12-14T05:53:13;50.67;;;28.80;;
47523;SDS011;33253;42.144;25.884;2023-12-14T05:55:38;50.80;;;27.95;;
47523;SDS011;33253;42.144;25.884;2023-12-14T05:58:06;51.45;;;29.02;;
47523;SDS011;33253;42.144;25.884;2023-12-14T06:00:32;53.78;;;28.95;;
47523;SDS011;33253;42.144;25.884;2023-12-14T06:03:00;55.22;;;31.75;;
47523;SDS011;33253;42.144;25.884;2023-12-14T06:05:26;50.28;;;28.50;;
47523;SDS011;33253;42.144;25.884;2023-12-14T06:07:51;49.05;;;29.30;;
47523;SDS011;33253;42.144;25.884;2023-12-14T06:10:17;50.70;;;29.45;;
47523;SDS011;33253;42.144;25.884;2023-12-14T06:12:43;54.83;;;30.33;;
47523;SDS011;33253;42.144;25.884;2023-12-14T06:15:08;57.67;;;34.17;;
47523;SDS011;33253;42.144;25.884;2023-12-14T06:17:35;52.83;;;32.30;;
47523;SDS011;33253;42.144;25.884;2023-12-14T06:20:02;54.17;;;34.67;;
47523;SDS011;33253;42.144;25.884;2023-12-14T06:22:29;51.33;;;32.08;;
47523;SDS011;33253;42.144;25.884;2023-12-14T06:24:54;53.53;;;34.38;;
47523;SDS011;33253;42.144;25.884;2023-12-14T06:27:20;51.15;;;29.95;;
47523;SDS011;33253;42.144;25.884;2023-12-14T06:29:48;51.78;;;31.75;;
47523;SDS011;33253;42.144;25.884;2023-12-14T06:32:13;50.45;;;31.25;;
47523;SDS011;33253;42.144;25.884;2023-12-14T06:34:39;52.33;;;32.58;;
47523;SDS011;33253;42.144;25.884;2023-12-14T06:37:04;48.17;;;30.52;;
47523;SDS011;33253;42.144;25.884;2023-12-14T06:39:30;52.67;;;31.92;;
47523;SDS011;33253;42.144;25.884;2023-12-14T06:41:56;49.80;;;31.13;;
47523;SDS011;33253;42.144;25.884;2023-12-14T06:44:21;48.10;;;31.63;;
47523;SDS011;33253;42.144;25.884;2023-12-14T06:46:47;50.85;;;31.17;;
47523;SDS011;33253;42.144;25.884;2023-12-14T06:49:12;55.75;;;32.58;;
47523;SDS011;33253;42.144;25.884;2023-12-14T06:51:37;55.60;;;31.50;;
47523;SDS011;33253;42.144;25.884;2023-12-14T06:54:03;51.30;;;31.00;;
47523;SDS011;33253;42.144;25.884;2023-12-14T06:56:28;50.85;;;31.00;;
47523;SDS011;33253;42.144;25.884;2023-12-14T06:58:54;49.22;;;29.10;;
47523;SDS011;33253;42.144;25.884;2023-12-14T07:01:19;50.95;;;27.35;;
47523;SDS011;33253;42.144;25.884;2023-12-14T07:03:45;46.97;;;27.55;;
47523;SDS011;33253;42.144;25.884;2023-12-14T07:06:18;54.97;;;32.13;;
47523;SDS011;33253;42.144;25.884;2023-12-14T07:08:44;55.13;;;33.22;;
47523;SDS011;33253;42.144;25.884;2023-12-14T07:11:11;55.08;;;31.58;;
47523;SDS011;33253;42.144;25.884;2023-12-14T07:13:37;59.03;;;30.25;;
47523;SDS011;33253;42.144;25.884;2023-12-14T07:16:06;55.33;;;29.90;;
47523;SDS011;33253;42.144;25.884;2023-12-14T07:18:33;56.22;;;32.25;;
47523;SDS011;33253;42.144;25.884;2023-12-14T07:21:02;64.93;;;37.78;;
47523;SDS011;33253;42.144;25.884;2023-12-14T07:23:29;53.63;;;32.17;;
47523;SDS011;33253;42.144;25.884;2023-12-14T07:25:54;53.70;;;31.90;;
47523;SDS011;33253;42.144;25.884;2023-12-14T07:28:20;60.20;;;34.08;;
47523;SDS011;33253;42.144;25.884;2023-12-14T07:30:45;58.40;;;31.90;;
47523;SDS011;33253;42.144;25.884;2023-12-14T07:33:11;51.42;;;28.20;;
47523;SDS011;33253;42.144;25.884;2023-12-14T07:35:37;57.78;;;31.08;;
47523;SDS011;33253;42.144;25.884;2023-12-14T07:38:03;55.95;;;33.20;;
47523;SDS011;33253;42.144;25.884;2023-12-14T07:40:28;52.75;;;30.98;;
47523;SDS011;33253;42.144;25.884;2023-12-14T07:42:55;53.10;;;32.13;;
47523;SDS011;33253;42.144;25.884;2023-12-14T07:45:21;55.22;;;34.35;;
47523;SDS011;33253;42.144;25.884;2023-12-14T07:47:46;65.53;;;39.63;;
47523;SDS011;33253;42.144;25.884;2023-12-14T07:50:12;55.55;;;34.67;;
47523;SDS011;33253;42.144;25.884;2023-12-14T07:52:38;55.65;;;33.67;;
47523;SDS011;33253;42.144;25.884;2023-12-14T07:55:04;53.28;;;33.30;;
47523;SDS011;33253;42.144;25.884;2023-12-14T07:57:31;57.45;;;34.85;;
47523;SDS011;33253;42.144;25.884;2023-12-14T07:59:56;60.00;;;35.97;;
47523;SDS011;33253;42.144;25.884;2023-12-14T08:02:22;66.85;;;38.47;;
47523;SDS011;33253;42.144;25.884;2023-12-14T08:04:48;65.55;;;40.30;;
47523;SDS011;33253;42.144;25.884;2023-12-14T08:07:13;64.85;;;37.33;;
47523;SDS011;33253;42.144;25.884;2023-12-14T08:09:40;68.13;;;40.10;;
47523;SDS011;33253;42.144;25.884;2023-12-14T08:12:05;90.18;;;46.63;;
47523;SDS011;33253;42.144;25.884;2023-12-14T08:14:34;75.25;;;40.95;;
47523;SDS011;33253;42.144;25.884;2023-12-14T08:17:02;72.22;;;41.15;;
47523;SDS011;33253;42.144;25.884;2023-12-14T08:19:28;73.10;;;42.42;;
47523;SDS011;33253;42.144;25.884;2023-12-14T08:21:54;69.88;;;39.45;;
47523;SDS011;33253;42.144;25.884;2023-12-14T08:24:19;95.28;;;58.17;;
47523;SDS011;33253;42.144;25.884;2023-12-14T08:26:45;80.30;;;47.22;;
47523;SDS011;33253;42.144;25.884;2023-12-14T08:29:10;68.13;;;37.38;;
47523;SDS011;33253;42.144;25.884;2023-12-14T08:31:36;66.43;;;36.83;;
47523;SDS011;33253;42.144;25.884;2023-12-14T08:34:01;64.68;;;36.25;;
47523;SDS011;33253;42.144;25.884;2023-12-14T08:36:28;63.97;;;35.78;;
47523;SDS011;33253;42.144;25.884;2023-12-14T08:38:54;65.47;;;37.15;;
47523;SDS011;33253;42.144;25.884;2023-12-14T08:41:19;72.07;;;39.47;;
47523;SDS011;33253;42.144;25.884;2023-12-14T08:43:45;66.75;;;40.03;;
47523;SDS011;33253;42.144;25.884;2023-12-14T08:46:10;68.35;;;40.53;;
47523;SDS011;33253;42.144;25.884;2023-12-14T08:48:36;66.03;;;40.97;;
47523;SDS011;33253;42.144;25.884;2023-12-14T08:51:01;79.18;;;44.47;;
47523;SDS011;33253;42.144;25.884;2023-12-14T08:53:27;78.43;;;44.60;;
47523;SDS011;33253;42.144;25.884;2023-12-14T08:55:53;75.55;;;42.42;;
47523;SDS011;33253;42.144;25.884;2023-12-14T08:58:19;63.63;;;38.38;;
47523;SDS011;33253;42.144;25.884;2023-12-14T09:00:44;66.93;;;40.72;;
47523;SDS011;33253;42.144;25.884;2023-12-14T09:03:10;69.13;;;40.60;;
47523;SDS011;33253;42.144;25.884;2023-12-14T09:05:36;68.22;;;39.55;;
47523;SDS011;33253;42.144;25.884;2023-12-14T09:08:02;65.88;;;38.42;;
47523;SDS011;33253;42.144;25.884;2023-12-14T09:10:28;66.95;;;38.38;;
47523;SDS011;33253;42.144;25.884;2023-12-14T09:12:53;67.13;;;38.03;;
47523;SDS011;33253;42.144;25.884;2023-12-14T09:15:19;70.00;;;40.05;;
47523;SDS011;33253;42.144;25.884;2023-12-14T09:17:44;64.95;;;38.63;;
47523;SDS011;33253;42.144;25.884;2023-12-14T09:20:10;61.13;;;36.25;;
47523;SDS011;33253;42.144;25.884;2023-12-14T09:22:36;53.90;;;32.30;;
47523;SDS011;33253;42.144;25.884;2023-12-14T09:25:02;56.65;;;33.20;;
47523;SDS011;33253;42.144;25.884;2023-12-14T09:27:28;57.17;;;33.88;;
47523;SDS011;33253;42.144;25.884;2023-12-14T09:29:54;57.15;;;32.90;;
47523;SDS011;33253;42.144;25.884;2023-12-14T09:32:19;62.75;;;36.42;;
47523;SDS011;33253;42.144;25.884;2023-12-14T09:34:45;72.18;;;42.67;;
47523;SDS011;33253;42.144;25.884;2023-12-14T09:37:10;65.80;;;38.78;;
47523;SDS011;33253;42.144;25.884;2023-12-14T09:39:38;63.03;;;37.05;;
47523;SDS011;33253;42.144;25.884;2023-12-14T09:42:04;61.20;;;38.17;;
47523;SDS011;33253;42.144;25.884;2023-12-14T09:44:31;59.45;;;36.47;;
47523;SDS011;33253;42.144;25.884;2023-12-14T09:46:58;54.85;;;35.30;;
47523;SDS011;33253;42.144;25.884;2023-12-14T09:49:28;59.92;;;36.72;;
47523;SDS011;33253;42.144;25.884;2023-12-14T09:51:55;63.97;;;38.95;;
47523;SDS011;33253;42.144;25.884;2023-12-14T09:54:23;55.50;;;34.95;;
47523;SDS011;33253;42.144;25.884;2023-12-14T09:56:50;59.75;;;34.30;;
47523;SDS011;33253;42.144;25.884;2023-12-14T09:59:17;54.03;;;32.78;;
47523;SDS011;33253;42.144;25.884;2023-12-14T10:01:42;54.65;;;34.25;;
47523;SDS011;33253;42.144;25.884;2023-12-14T10:04:09;54.63;;;33.28;;
47523;SDS011;33253;42.144;25.884;2023-12-14T10:06:34;53.42;;;31.67;;
47523;SDS011;33253;42.144;25.884;2023-12-14T10:09:00;53.40;;;33.13;;
47523;SDS011;33253;42.144;25.884;2023-12-14T10:11:26;54.20;;;33.65;;
47523;SDS011;33253;42.144;25.884;2023-12-14T10:13:52;56.20;;;32.95;;
47523;SDS011;33253;42.144;25.884;2023-12-14T10:16:27;56.15;;;34.40;;
47523;SDS011;33253;42.144;25.884;2023-12-14T10:18:55;56.05;;;33.33;;
47523;SDS011;33253;42.144;25.884;2023-12-14T10:21:20;57.85;;;32.95;;
47523;SDS011;33253;42.144;25.884;2023-12-14T10:23:46;63.72;;;37.53;;
47523;SDS011;33253;42.144;25.884;2023-12-14T10:26:11;63.05;;;35.72;;
47523;SDS011;33253;42.144;25.884;2023-12-14T10:28:39;64.18;;;37.03;;
47523;SDS011;33253;42.144;25.884;2023-12-14T10:31:05;62.22;;;36.20;;
47523;SDS011;33253;42.144;25.884;2023-12-14T10:33:31;60.00;;;36.70;;
47523;SDS011;33253;42.144;25.884;2023-12-14T10:35:56;74.38;;;42.35;;
47523;SDS011;33253;42.144;25.884;2023-12-14T10:38:22;59.47;;;34.90;;
47523;SDS011;33253;42.144;25.884;2023-12-14T10:40:51;60.27;;;35.03;;
47523;SDS011;33253;42.144;25.884;2023-12-14T10:43:18;60.92;;;35.42;;
47523;SDS011;33253;42.144;25.884;2023-12-14T10:45:44;56.72;;;34.40;;
47523;SDS011;33253;42.144;25.884;2023-12-14T10:48:12;57.58;;;34.42;;
47523;SDS011;33253;42.144;25.884;2023-12-14T10:50:38;62.25;;;35.47;;
47523;SDS011;33253;42.144;25.884;2023-12-14T10:53:07;58.20;;;36.55;;
47523;SDS011;33253;42.144;25.884;2023-12-14T10:55:37;59.72;;;36.40;;
47523;SDS011;33253;42.144;25.884;2023-12-14T10:58:05;63.65;;;36.28;;
47523;SDS011;33253;42.144;25.884;2023-12-14T11:00:33;61.40;;;37.35;;
47523;SDS011;33253;42.144;25.884;2023-12-14T11:02:59;59.35;;;35.97;;
47523;SDS011;33253;42.144;25.884;2023-12-14T11:05:26;61.13;;;37.05;;
47523;SDS011;33253;42.144;25.884;2023-12-14T11:07:59;54.22;;;34.95;;
47523;SDS011;33253;42.144;25.884;2023-12-14T11:10:35;57.45;;;35.38;;
47523;SDS011;33253;42.144;25.884;2023-12-14T11:13:03;57.33;;;33.70;;
47523;SDS011;33253;42.144;25.884;2023-12-14T11:15:34;59.47;;;34.90;;
47523;SDS011;33253;42.144;25.884;2023-12-14T11:23:09;57.63;;;33.38;;
47523;SDS011;33253;42.144;25.884;2023-12-14T11:25:35;52.22;;;32.17;;
47523;SDS011;33253;42.144;25.884;2023-12-14T11:28:06;55.53;;;33.42;;
47523;SDS011;33253;42.144;25.884;2023-12-14T11:30:33;64.82;;;34.80;;
47523;SDS011;33253;42.144;25.884;2023-12-14T11:33:00;57.88;;;37.17;;
47523;SDS011;33253;42.144;25.884;2023-12-14T11:35:25;59.38;;;37.30;;
47523;SDS011;33253;42.144;25.884;2023-12-14T11:37:51;60.47;;;36.17;;
47523;SDS011;33253;42.144;25.884;2023-12-14T11:40:18;66.10;;;38.03;;
47523;SDS011;33253;42.144;25.884;2023-12-14T11:45:25;60.30;;;36.70;;
47523;SDS011;33253;42.144;25.884;2023-12-14T11:47:52;57.35;;;35.10;;
47523;SDS011;33253;42.144;25.884;2023-12-14T11:50:18;56.70;;;34.72;;
47523;SDS011;33253;42.144;25.884;2023-12-14T11:52:44;59.95;;;37.95;;
47523;SDS011;33253;42.144;25.884;2023-12-14T11:55:10;66.65;;;38.38;;
47523;SDS011;33253;42.144;25.884;2023-12-14T11:57:36;59.60;;;35.80;;
47523;SDS011;33253;42.144;25.884;2023-12-14T12:00:01;61.00;;;37.83;;
47523;SDS011;33253;42.144;25.884;2023-12-14T12:02:28;62.38;;;37.72;;
47523;SDS011;33253;42.144;25.884;2023-12-14T12:04:53;65.10;;;39.47;;
47523;SDS011;33253;42.144;25.884;2023-12-14T12:07:19;66.95;;;37.53;;
47523;SDS011;33253;42.144;25.884;2023-12-14T12:09:44;65.78;;;39.05;;
47523;SDS011;33253;42.144;25.884;2023-12-14T12:12:10;59.92;;;37.40;;
47523;SDS011;33253;42.144;25.884;2023-12-14T12:14:37;57.42;;;39.00;;
47523;SDS011;33253;42.144;25.884;2023-12-14T12:17:04;59.38;;;37.40;;
47523;SDS011;33253;42.144;25.884;2023-12-14T12:19:31;57.97;;;35.47;;
47523;SDS011;33253;42.144;25.884;2023-12-14T12:22:01;58.25;;;36.72;;
47523;SDS011;33253;42.144;25.884;2023-12-14T12:24:27;61.58;;;37.50;;
47523;SDS011;33253;42.144;25.884;2023-12-14T12:26:53;59.20;;;36.05;;
47523;SDS011;33253;42.144;25.884;2023-12-14T12:29:19;63.55;;;39.28;;
47523;SDS011;33253;42.144;25.884;2023-12-14T12:31:46;59.65;;;37.53;;
47523;SDS011;33253;42.144;25.884;2023-12-14T12:34:12;59.20;;;36.70;;
47523;SDS011;33253;42.144;25.884;2023-12-14T12:36:38;63.03;;;37.63;;
47523;SDS011;33253;42.144;25.884;2023-12-14T12:39:03;59.35;;;35.20;;
47523;SDS011;33253;42.144;25.884;2023-12-14T12:41:31;57.53;;;36.08;;
47523;SDS011;33253;42.144;25.884;2023-12-14T12:44:00;75.70;;;38.38;;
47523;SDS011;33253;42.144;25.884;2023-12-14T12:46:31;83.68;;;40.85;;
47523;SDS011;33253;42.144;25.884;2023-12-14T12:48:58;83.10;;;40.40;;
47523;SDS011;33253;42.144;25.884;2023-12-14T12:51:23;65.50;;;35.90;;
47523;SDS011;33253;42.144;25.884;2023-12-14T12:53:50;64.25;;;36.95;;
47523;SDS011;33253;42.144;25.884;2023-12-14T12:56:16;64.70;;;37.22;;
47523;SDS011;33253;42.144;25.884;2023-12-14T12:58:41;61.88;;;35.63;;
47523;SDS011;33253;42.144;25.884;2023-12-14T13:01:07;61.40;;;36.88;;
47523;SDS011;33253;42.144;25.884;2023-12-14T13:03:33;61.50;;;37.03;;
47523;SDS011;33253;42.144;25.884;2023-12-14T13:05:58;70.07;;;38.38;;
47523;SDS011;33253;42.144;25.884;2023-12-14T13:08:23;62.38;;;38.03;;
47523;SDS011;33253;42.144;25.884;2023-12-14T13:10:49;64.22;;;37.67;;
47523;SDS011;33253;42.144;25.884;2023-12-14T13:13:16;62.58;;;36.85;;
47523;SDS011;33253;42.144;25.884;2023-12-14T13:15:43;66.93;;;37.80;;
47523;SDS011;33253;42.144;25.884;2023-12-14T13:18:09;62.70;;;36.33;;
47523;SDS011;33253;42.144;25.884;2023-12-14T13:20:34;60.00;;;35.85;;
47523;SDS011;33253;42.144;25.884;2023-12-14T13:23:00;61.28;;;35.78;;
47523;SDS011;33253;42.144;25.884;2023-12-14T13:25:26;65.75;;;38.35;;
47523;SDS011;33253;42.144;25.884;2023-12-14T13:27:52;61.92;;;38.00;;
47523;SDS011;33253;42.144;25.884;2023-12-14T13:30:17;62.08;;;37.00;;
47523;SDS011;33253;42.144;25.884;2023-12-14T13:32:44;63.38;;;37.58;;
47523;SDS011;33253;42.144;25.884;2023-12-14T13:35:09;69.72;;;40.40;;
47523;SDS011;33253;42.144;25.884;2023-12-14T13:37:35;62.92;;;37.10;;
47523;SDS011;33253;42.144;25.884;2023-12-14T13:40:01;66.88;;;40.05;;
47523;SDS011;33253;42.144;25.884;2023-12-14T13:42:28;63.28;;;38.53;;
47523;SDS011;33253;42.144;25.884;2023-12-14T13:44:53;67.75;;;40.65;;
47523;SDS011;33253;42.144;25.884;2023-12-14T13:47:19;69.05;;;42.80;;
47523;SDS011;33253;42.144;25.884;2023-12-14T13:49:44;74.78;;;44.40;;
47523;SDS011;33253;42.144;25.884;2023-12-14T13:52:10;71.38;;;44.80;;
47523;SDS011;33253;42.144;25.884;2023-12-14T13:54:35;68.07;;;42.65;;
47523;SDS011;33253;42.144;25.884;2023-12-14T13:57:04;68.00;;;41.38;;
47523;SDS011;33253;42.144;25.884;2023-12-14T13:59:29;64.32;;;39.58;;
47523;SDS011;33253;42.144;25.884;2023-12-14T14:01:55;67.72;;;40.95;;
47523;SDS011;33253;42.144;25.884;2023-12-14T14:04:21;72.40;;;45.70;;
47523;SDS011;33253;42.144;25.884;2023-12-14T14:06:46;85.30;;;50.17;;
47523;SDS011;33253;42.144;25.884;2023-12-14T14:09:12;76.40;;;47.67;;